CheckWX is a tool to help pilots better visualize weather data.  It is not intended as a substitute for an official pre-flight weather briefing.

15:25:02 UTC

KETN METAR
Eastland Municipal Airport
Eastland, Texas, USA
Current

30 mins ago

KETN 201455Z AUTO 15015G22KT 5SM HZ BKN012 BKN020 OVC031 24/22 A2980 RMK AO2 T02440217
Observed
May-20 @ 14:55 UTC
Wind
  • 150° at 15 KTS
  • Gusting to 22 KTS
Visibility
5 SM
Flight Rules
MVFR
Conditions
Haze
Cloud Levels
  • Broken at 1,200' AGL
  • Broken at 2,000' AGL
  • Overcast at 3,100' AGL
Temperature
24°C / 75°F
Dewpoint
22°C / 72°F
Humidity
89%
Altimeter
29.8" Hg
Pressure
1009.12 hPa
Previous

50 mins ago

KETN 201435Z AUTO 14015G19KT 5SM BR BKN012 OVC018 24/22 A2980 RMK AO2 T02390216
Observed
May-20 @ 14:35 UTC
Wind
  • 140° at 15 KTS
  • Gusting to 19 KTS
Visibility
5 SM
Flight Rules
MVFR
Conditions
Mist
Cloud Levels
  • Broken at 1,200' AGL
  • Overcast at 1,800' AGL
Temperature
24°C / 75°F
Dewpoint
22°C / 72°F
Humidity
89%
Altimeter
29.8" Hg
Pressure
1009.12 hPa
Previous

1 hour ago

KETN 201415Z AUTO 15013G20KT 5SM BR OVC010 23/21 A2981 RMK AO2 T02350214
Observed
May-20 @ 14:15 UTC
Wind
  • 150° at 13 KTS
  • Gusting to 20 KTS
Visibility
5 SM
Flight Rules
MVFR
Conditions
Mist
Cloud Levels
  • Overcast at 1,000' AGL
Temperature
24°C / 75°F
Dewpoint
21°C / 70°F
Humidity
83%
Altimeter
29.81" Hg
Pressure
1009.52 hPa